Time;durP1;ratioP1;P1;durP2;ratioP2;P2;SDS_P1;SDS_P2;PMS_P1;PMS_P2;Temp;Humidity;BMP_temperature;BMP_pressure;BME280_temperature;BME280_humidity;BME280_pressure;Samples;Min_cycle;Max_cycle;Signal;HPM_P1;HPM_P2
2021/12/22 06:03:37;;;;;;;24.58;11.52;;;;;;;-7.93;84.23;99113.03;5689333;23;20067;-51
2021/12/22 06:06:02;;;;;;;26.55;12.68;;;;;;;-8.06;84.49;99111.06;4963137;28;20044;-47
2021/12/22 06:08:28;;;;;;;23.98;11.25;;;;;;;-7.84;84.01;99109.81;4963735;28;20035;-47
2021/12/22 06:10:53;;;;;;;20.10;11.20;;;;;;;-7.91;83.13;99108.81;4955577;28;20061;-47
2021/12/22 06:13:19;;;;;;;24.77;11.70;;;;;;;-7.83;82.14;99098.78;4970165;28;20090;-51
2021/12/22 06:15:44;;;;;;;24.05;12.48;;;;;;;-7.65;82.33;99086.38;4975428;28;20034;-52
2021/12/22 06:18:09;;;;;;;26.60;11.85;;;;;;;-7.59;81.11;99108.56;4975553;28;20038;-49
2021/12/22 06:20:35;;;;;;;24.75;12.15;;;;;;;-7.66;80.71;99098.25;4983280;28;20043;-48
2021/12/22 06:23:00;;;;;;;25.92;10.85;;;;;;;-7.49;80.54;99110.44;4983806;28;20037;-51
2021/12/22 06:25:26;;;;;;;24.88;11.45;;;;;;;-7.50;79.97;99109.59;4976305;28;20126;-47
2021/12/22 06:27:51;;;;;;;24.73;11.43;;;;;;;-7.33;80.13;99104.75;4982290;28;20033;-49
2021/12/22 06:30:18;;;;;;;28.77;13.32;;;;;;;-7.37;79.79;99099.59;4982624;28;20026;-48
2021/12/22 06:32:44;;;;;;;26.80;12.75;;;;;;;-7.57;80.63;99102.66;4986403;28;20026;-48
2021/12/22 06:35:09;;;;;;;27.15;12.32;;;;;;;-7.57;79.17;99094.16;4985084;28;20094;-49
2021/12/22 06:37:34;;;;;;;25.85;11.68;;;;;;;-7.47;79.36;99094.31;4983158;28;20069;-47
2021/12/22 06:40:00;;;;;;;28.48;12.38;;;;;;;-7.54;79.75;99101.84;4964725;28;20093;-48
2021/12/22 06:42:25;;;;;;;23.48;11.82;;;;;;;-7.49;79.15;99100.25;4980816;28;20106;-48
2021/12/22 06:44:51;;;;;;;22.95;12.15;;;;;;;-7.53;78.12;99099.34;4982885;28;20398;-49
2021/12/22 06:47:16;;;;;;;22.02;11.30;;;;;;;-7.66;79.37;99102.50;4982921;28;20047;-51
2021/12/22 06:49:41;;;;;;;23.88;10.77;;;;;;;-7.59;80.91;99094.13;4982450;28;20031;-49
2021/12/22 06:52:07;;;;;;;23.75;12.07;;;;;;;-7.62;79.05;99096.63;4974368;28;20033;-48
2021/12/22 06:54:32;;;;;;;27.88;12.93;;;;;;;-7.69;79.91;99097.34;4982448;28;20395;-49
2021/12/22 06:56:58;;;;;;;21.05;11.30;;;;;;;-7.42;78.62;99102.06;4982923;28;20037;-48
2021/12/22 06:59:23;;;;;;;29.15;13.25;;;;;;;-7.40;79.06;99102.94;4983360;28;20027;-47
2021/12/22 07:01:50;;;;;;;27.80;11.57;;;;;;;-7.38;78.52;99082.59;4983416;28;20033;-46
2021/12/22 07:04:16;;;;;;;23.98;11.23;;;;;;;-7.30;78.76;99099.72;4978913;28;20065;-52
2021/12/22 07:06:41;;;;;;;21.67;10.85;;;;;;;-7.50;77.81;99096.84;4984176;28;20031;-48
2021/12/22 07:09:07;;;;;;;22.13;11.57;;;;;;;-7.31;78.26;99089.50;4992278;28;20034;-49
2021/12/22 07:11:34;;;;;;;27.58;12.63;;;;;;;-7.33;78.69;99092.00;4996468;28;20058;-49
2021/12/22 07:14:00;;;;;;;28.08;12.90;;;;;;;-7.35;78.19;99096.25;4987802;28;20026;-50
2021/12/22 07:16:25;;;;;;;22.23;10.82;;;;;;;-7.38;78.52;99097.88;4976599;28;20031;-52
2021/12/22 07:18:50;;;;;;;25.77;10.40;;;;;;;-7.29;77.50;99105.69;4984811;28;20027;-51
2021/12/22 07:21:16;;;;;;;21.38;10.00;;;;;;;-7.35;78.50;99114.09;4984460;28;20018;-55
2021/12/22 07:23:41;;;;;;;20.77;10.98;;;;;;;-7.26;77.51;99113.38;4981154;28;20025;-55
2021/12/22 07:26:13;;;;;;;26.48;11.95;;;;;;;-7.38;78.21;99128.47;4993645;28;20110;-54
2021/12/22 07:28:38;;;;;;;27.75;12.05;;;;;;;-7.16;77.99;99135.63;4984513;28;20033;-55
2021/12/22 07:31:04;;;;;;;25.52;12.68;;;;;;;-7.31;78.32;99137.94;4992463;28;20089;-54
2021/12/22 07:33:29;;;;;;;23.85;11.98;;;;;;;-7.32;77.82;99144.72;4981611;28;20098;-55
2021/12/22 07:35:59;;;;;;;25.35;12.93;;;;;;;-7.29;77.67;99139.69;4996336;28;20036;-53
2021/12/22 07:38:24;;;;;;;25.02;12.02;;;;;;;-7.41;78.70;99145.41;5005691;28;20434;-53
2021/12/22 07:40:51;;;;;;;25.52;11.40;;;;;;;-7.27;78.00;99144.81;4998590;28;20043;-53
2021/12/22 07:43:16;;;;;;;20.13;11.65;;;;;;;-7.15;77.78;99144.19;4984282;28;20038;-51
2021/12/22 07:45:41;;;;;;;23.20;10.95;;;;;;;-7.08;77.47;99143.44;4990383;28;20038;-55
2021/12/22 07:48:07;;;;;;;29.13;12.55;;;;;;;-7.22;78.55;99150.84;4999480;28;20026;-56
2021/12/22 07:50:32;;;;;;;21.45;11.60;;;;;;;-7.03;77.33;99152.88;4992506;28;20092;-52
2021/12/22 07:52:58;;;;;;;25.55;12.07;;;;;;;-7.08;78.28;99149.41;4999217;28;20022;-51
2021/12/22 07:55:23;;;;;;;22.45;11.30;;;;;;;-7.00;77.99;99152.91;5000725;28;20030;-50
2021/12/22 07:57:49;;;;;;;26.90;10.20;;;;;;;-6.71;76.69;99155.94;5003595;28;20098;-52
2021/12/22 08:00:14;;;;;;;24.90;10.98;;;;;;;-6.91;77.61;99161.56;4991961;28;20037;-51
2021/12/22 08:02:40;;;;;;;25.80;12.43;;;;;;;-6.91;78.12;99161.56;4975603;28;20033;-51
2021/12/22 08:05:05;;;;;;;22.20;11.75;;;;;;;-6.89;78.08;99170.09;4998304;28;20033;-49
2021/12/22 08:07:31;;;;;;;25.55;11.50;;;;;;;-6.84;78.13;99163.41;4997485;28;20026;-54
2021/12/22 08:09:56;;;;;;;24.40;11.27;;;;;;;-6.90;78.29;99158.19;4985703;28;20023;-51
2021/12/22 08:12:21;;;;;;;25.33;11.35;;;;;;;-6.76;77.68;99169.47;4981637;28;20033;-52
2021/12/22 08:14:47;;;;;;;20.27;9.90;;;;;;;-6.63;77.51;99152.66;4994934;28;20030;-50
2021/12/22 08:17:13;;;;;;;22.38;11.27;;;;;;;-6.63;77.31;99138.19;4999042;28;20029;-50
2021/12/22 08:19:40;;;;;;;26.17;12.02;;;;;;;-6.81;78.13;99148.09;4994680;28;20026;-52
2021/12/22 08:22:05;;;;;;;26.35;12.90;;;;;;;-6.74;78.14;99155.06;4981926;28;20031;-49
2021/12/22 08:24:31;;;;;;;24.02;11.18;;;;;;;-6.74;78.09;99160.16;4982594;28;20078;-51
2021/12/22 08:26:56;;;;;;;27.67;12.00;;;;;;;-7.03;79.22;99160.53;4982075;28;20038;-53
2021/12/22 08:29:22;;;;;;;25.92;13.73;;;;;;;-7.23;80.02;99165.28;4997760;28;20030;-52
2021/12/22 08:31:48;;;;;;;25.55;11.77;;;;;;;-6.85;79.43;99167.59;4989669;28;20023;-48
2021/12/22 08:34:21;;;;;;;22.65;11.70;;;;;;;-6.76;79.11;99174.56;4981328;28;20037;-50
2021/12/22 08:39:30;;;;;;;23.75;9.88;;;;;;;-6.68;78.41;99181.50;5002797;28;20038;-52
2021/12/22 08:41:56;;;;;;;26.50;12.52;;;;;;;-6.95;79.88;99176.84;4998508;28;20030;-52
2021/12/22 08:44:22;;;;;;;24.38;11.80;;;;;;;-6.72;79.45;99178.88;5000375;28;20026;-51
2021/12/22 08:46:49;;;;;;;26.00;12.43;;;;;;;-6.71;79.45;99170.38;5004192;28;20032;-53
2021/12/22 08:49:15;;;;;;;23.42;12.35;;;;;;;-6.72;79.64;99178.88;4996630;28;20029;-52
2021/12/22 08:51:40;;;;;;;24.73;11.23;;;;;;;-6.49;79.59;99171.59;4985499;28;20022;-52
2021/12/22 08:54:06;;;;;;;28.55;12.57;;;;;;;-6.34;79.64;99171.78;4983194;28;20057;-48
2021/12/22 08:56:31;;;;;;;25.48;12.43;;;;;;;-6.05;79.43;99174.75;4981046;28;20034;-48
2021/12/22 08:58:57;;;;;;;23.95;12.48;;;;;;;-5.99;79.37;99159.53;4982811;28;20030;-49
2021/12/22 09:01:22;;;;;;;29.70;12.38;;;;;;;-5.87;78.83;99158.78;4989549;28;20081;-48
2021/12/22 09:03:48;;;;;;;24.65;11.45;;;;;;;-5.76;78.55;99157.19;4987127;28;20035;-51
2021/12/22 09:06:13;;;;;;;28.40;12.88;;;;;;;-5.87;79.69;99166.44;5001227;28;20027;-51
2021/12/22 09:08:42;;;;;;;24.25;11.52;;;;;;;-5.59;79.11;99149.72;5000547;28;20033;-50
2021/12/22 09:11:08;;;;;;;22.33;10.93;;;;;;;-5.50;79.61;99160.06;4981507;28;20085;-49
2021/12/22 09:13:36;;;;;;;28.25;12.60;;;;;;;-5.47;78.82;99161.81;4982726;28;20026;-50
2021/12/22 09:16:01;;;;;;;25.83;13.18;;;;;;;-5.36;79.25;99161.91;4986921;28;20065;-54
2021/12/22 09:18:27;;;;;;;28.88;12.60;;;;;;;-5.28;79.81;99160.28;4983627;28;20413;-52
2021/12/22 09:20:52;;;;;;;28.77;13.20;;;;;;;-5.08;79.05;99158.75;4991113;28;20034;-55
2021/12/22 09:23:17;;;;;;;29.00;13.43;;;;;;;-4.94;79.34;99160.59;5000489;28;20029;-52
2021/12/22 09:25:43;;;;;;;24.13;10.90;;;;;;;-4.70;78.48;99165.91;4988069;28;20032;-53
2021/12/22 09:28:09;;;;;;;23.92;12.00;;;;;;;-4.82;78.32;99155.56;4995105;28;20049;-50
2021/12/22 09:30:36;;;;;;;28.77;12.82;;;;;;;-4.60;77.33;99160.00;4987559;28;20041;-54
2021/12/22 09:33:05;;;;;;;28.40;13.48;;;;;;;-4.82;78.41;99160.69;4988259;28;20033;-50
2021/12/22 09:35:30;;;;;;;31.65;13.20;;;;;;;-4.51;77.85;99158.34;4982936;28;20030;-52
2021/12/22 09:37:56;;;;;;;25.25;12.70;;;;;;;-4.61;78.76;99150.63;4988827;28;20030;-54
2021/12/22 09:40:21;;;;;;;31.45;12.52;;;;;;;-4.30;78.63;99154.25;5002330;28;20429;-50
2021/12/22 09:42:47;;;;;;;26.38;11.25;;;;;;;-4.30;77.63;99141.44;4991047;28;20018;-53
2021/12/22 09:45:12;;;;;;;22.80;11.45;;;;;;;-4.32;78.79;99144.84;4981713;28;20029;-50
2021/12/22 09:47:58;;;;;;;27.02;12.32;;;;;;;-4.32;78.06;99149.97;4998117;28;20038;-50
2021/12/22 09:50:38;;;;;;;23.77;11.40;;;;;;;-4.00;77.35;99139.88;5000153;28;20034;-53
2021/12/22 09:53:03;;;;;;;23.33;11.32;;;;;;;-4.18;78.60;99135.50;4980747;28;20037;-50
2021/12/22 09:55:30;;;;;;;22.13;11.82;;;;;;;-4.12;78.08;99135.56;4982213;28;20270;-51
2021/12/22 09:57:55;;;;;;;25.15;11.63;;;;;;;-4.12;78.03;99132.13;4969031;28;20100;-51
2021/12/22 10:00:21;;;;;;;21.27;10.70;;;;;;;-4.00;77.56;99124.50;4982292;28;20026;-49
2021/12/22 10:02:46;;;;;;;22.60;11.90;;;;;;;-3.78;77.04;99120.31;4994515;28;20031;-52
2021/12/22 10:05:12;;;;;;;21.08;10.43;;;;;;;-3.67;76.32;99118.63;4979754;28;20022;-54
2021/12/22 10:07:40;;;;;;;22.10;10.27;;;;;;;-3.53;76.78;99125.53;4980805;28;20038;-52
2021/12/22 10:10:08;;;;;;;21.27;10.27;;;;;;;-3.23;76.38;99117.88;4983872;28;20514;-51
2021/12/22 10:12:34;;;;;;;19.92;10.15;;;;;;;-3.22;76.49;99111.03;4982426;28;20474;-51
2021/12/22 10:15:01;;;;;;;20.63;10.40;;;;;;;-3.20;76.37;99110.19;4974358;28;20030;-50
2021/12/22 10:17:26;;;;;;;22.00;10.02;;;;;;;-3.01;76.18;99099.94;4982271;28;20032;-51
2021/12/22 10:19:54;;;;;;;23.20;10.60;;;;;;;-2.82;75.51;99091.38;4997725;28;20113;-53
2021/12/22 10:22:19;;;;;;;19.40;10.38;;;;;;;-2.90;76.04;99098.22;4977257;28;20030;-52
2021/12/22 10:24:46;;;;;;;17.80;9.40;;;;;;;-2.86;76.38;99089.66;4986914;28;20101;-52
2021/12/22 10:27:19;;;;;;;20.58;10.00;;;;;;;-2.85;76.27;99086.25;4995634;28;20422;-52
2021/12/22 10:29:44;;;;;;;22.02;10.57;;;;;;;-2.59;76.06;99077.63;4977010;28;20027;-49
2021/12/22 10:32:11;;;;;;;18.10;9.65;;;;;;;-2.47;74.99;99077.63;4978741;28;20057;-51
2021/12/22 10:34:54;;;;;;;21.83;9.98;;;;;;;-2.49;75.21;99064.75;4992678;28;20105;-52
2021/12/22 10:37:36;;;;;;;19.63;9.93;;;;;;;-2.22;74.92;99068.97;4962120;28;20061;-53
2021/12/22 10:40:20;;;;;;;19.90;9.85;;;;;;;-2.19;74.62;99062.97;4992344;28;20371;-53
2021/12/22 10:42:46;;;;;;;18.10;9.82;;;;;;;-2.27;74.49;99068.16;4977000;28;20367;-51
2021/12/22 10:45:13;;;;;;;18.75;10.50;;;;;;;-2.18;74.99;99065.53;4979856;28;20033;-49
2021/12/22 10:50:32;;;;;;;17.42;9.60;;;;;;;-1.97;74.57;99058.59;4982212;28;20056;-51
2021/12/22 10:52:57;;;;;;;22.27;10.70;;;;;;;-1.72;73.07;99049.91;4997156;28;20471;-51
2021/12/22 10:55:23;;;;;;;21.13;10.02;;;;;;;-1.65;73.67;99045.56;4980671;28;20394;-52
2021/12/22 10:57:48;;;;;;;22.30;10.98;;;;;;;-1.70;73.74;99048.16;4979827;28;20041;-52
2021/12/22 11:00:22;;;;;;;18.05;8.75;;;;;;;-1.68;73.77;99043.88;4980141;28;20033;-48
2021/12/22 11:03:04;;;;;;;19.17;9.25;;;;;;;-1.61;73.88;99031.81;4977284;28;20019;-49
2021/12/22 11:05:29;;;;;;;18.75;8.75;;;;;;;-1.28;72.81;99035.84;4981235;28;20026;-52
2021/12/22 11:07:55;;;;;;;20.80;9.85;;;;;;;-1.32;73.01;99034.16;4995471;28;20031;-51
2021/12/22 11:10:28;;;;;;;19.90;9.70;;;;;;;-1.07;72.34;99033.97;4981485;28;20027;-49
2021/12/22 11:13:05;;;;;;;18.02;8.93;;;;;;;-1.18;72.12;99035.78;4977635;28;20027;-49
2021/12/22 11:15:39;;;;;;;19.80;10.02;;;;;;;-1.21;72.33;99019.50;4990523;28;20034;-50
2021/12/22 11:18:09;;;;;;;17.60;9.05;;;;;;;-1.04;72.85;99023.66;4992071;28;20057;-50
2021/12/22 11:20:34;;;;;;;18.40;9.23;;;;;;;-0.91;72.19;99019.25;4995935;28;20026;-49
2021/12/22 11:23:01;;;;;;;21.10;10.07;;;;;;;-0.96;72.01;99012.44;4981007;28;20031;-51
2021/12/22 11:25:27;;;;;;;19.90;9.65;;;;;;;-0.80;71.87;99010.53;4977798;28;20023;-53
2021/12/22 11:27:53;;;;;;;20.67;9.85;;;;;;;-0.62;71.15;99006.94;4989408;28;20027;-52
2021/12/22 11:30:19;;;;;;;16.90;9.27;;;;;;;-0.63;70.23;99004.38;4996723;28;20036;-51
2021/12/22 11:32:44;;;;;;;18.50;9.27;;;;;;;-0.46;70.52;98984.41;4984256;28;20041;-52
2021/12/22 11:35:11;;;;;;;22.17;10.07;;;;;;;-0.43;70.74;98997.25;4977195;28;20086;-49
2021/12/22 11:37:36;;;;;;;19.20;10.07;;;;;;;-0.65;71.00;98993.25;4988371;28;20026;-49
2021/12/22 11:40:04;;;;;;;19.42;9.48;;;;;;;-0.38;70.75;98990.34;4995752;28;20023;-49
2021/12/22 11:42:32;;;;;;;19.42;9.50;;;;;;;-0.46;70.90;98987.00;4981851;28;20397;-50
2021/12/22 11:45:05;;;;;;;21.38;9.85;;;;;;;-0.42;70.01;98980.91;4975635;28;20054;-49
2021/12/22 11:47:35;;;;;;;21.02;10.43;;;;;;;-0.41;70.32;98985.22;4973318;28;20034;-53
2021/12/22 11:50:01;;;;;;;19.58;9.63;;;;;;;-0.40;70.36;98986.91;4995573;28;20033;-50
2021/12/22 11:52:33;;;;;;;18.55;9.50;;;;;;;-0.33;70.13;98977.38;4984304;28;20081;-53
2021/12/22 11:55:13;;;;;;;17.45;9.35;;;;;;;-0.12;69.69;98971.94;4976699;28;20031;-48
2021/12/22 11:57:39;;;;;;;19.23;9.52;;;;;;;-0.10;69.61;98974.53;4989617;28;20049;-49
2021/12/22 12:00:22;;;;;;;19.80;9.30;;;;;;;-0.06;68.70;98976.19;4994606;28;20070;-53
2021/12/22 12:02:48;;;;;;;16.73;9.07;;;;;;;0.01;68.12;98976.97;4976841;28;20031;-49
2021/12/22 12:05:21;;;;;;;19.77;9.68;;;;;;;-0.11;69.24;98968.47;4987514;28;20069;-50
2021/12/22 12:07:52;;;;;;;18.13;9.18;;;;;;;0.17;68.74;98970.69;4981238;28;20031;-51
2021/12/22 12:10:42;;;;;;;33.65;12.82;;;;;;;0.27;68.42;98963.66;4976776;28;20039;-51
2021/12/22 12:13:27;;;;;;;16.95;8.80;;;;;;;0.38;67.67;98961.75;4990271;28;20419;-52
2021/12/22 12:21:54;;;;;;;16.02;8.57;;;;;;;0.49;66.96;98954.72;4982323;28;20418;-52
2021/12/22 12:24:41;;;;;;;23.85;10.73;;;;;;;0.54;67.01;98947.75;4978890;28;20479;-54
2021/12/22 12:27:37;;;;;;;15.10;7.70;;;;;;;0.81;66.45;98940.41;4996800;28;20026;-54
2021/12/22 12:30:04;;;;;;;16.05;7.85;;;;;;;0.99;65.81;98941.81;4967973;29;20432;-54
2021/12/22 12:32:38;;;;;;;17.30;7.65;;;;;;;0.85;64.29;98942.91;4968164;28;20024;-53
2021/12/22 12:35:19;;;;;;;12.88;6.97;;;;;;;1.03;64.84;98941.72;5006521;28;20049;-54
2021/12/22 12:38:06;;;;;;;14.68;6.85;;;;;;;1.06;64.00;98936.50;4988620;28;20027;-53
2021/12/22 12:46:40;;;;;;;13.80;6.28;;;;;;;1.41;62.20;98922.03;5004928;28;20445;-51
2021/12/22 12:49:06;;;;;;;16.92;8.57;;;;;;;1.49;61.92;98930.50;4987170;28;20041;-51
2021/12/22 12:51:35;;;;;;;15.43;7.47;;;;;;;1.40;61.80;98930.69;4987583;28;20388;-54
2021/12/22 12:54:08;;;;;;;14.20;6.70;;;;;;;1.50;62.64;98932.22;5000362;28;20034;-52
2021/12/22 12:56:40;;;;;;;18.02;8.63;;;;;;;1.75;61.24;98916.16;4989231;28;20105;-53
2021/12/22 12:59:13;;;;;;;13.10;6.90;;;;;;;1.60;60.32;98918.22;4987675;28;20034;-54
2021/12/22 13:01:44;;;;;;;14.43;6.03;;;;;;;1.90;60.24;98915.84;4987047;28;20027;-52
2021/12/22 13:04:26;;;;;;;13.75;6.45;;;;;;;1.86;60.18;98912.47;5001040;28;20072;-51
2021/12/22 13:07:00;;;;;;;;;;;;;;;1.89;59.75;98908.97;5006103;28;20038;-54
2021/12/22 13:09:27;;;;;;;14.48;6.22;;;;;;;1.89;59.32;98898.59;4989709;28;19914;-54
2021/12/22 13:11:58;;;;;;;13.05;6.15;;;;;;;1.84;58.81;98896.13;4991400;28;20056;-53
2021/12/22 13:17:11;;;;;;;16.70;8.52;;;;;;;1.73;59.67;98899.84;4982758;28;20034;-54
2021/12/22 13:19:44;;;;;;;17.90;8.68;;;;;;;1.70;59.64;98902.50;4982791;28;20438;-55
2021/12/22 13:22:23;;;;;;;15.73;6.85;;;;;;;1.78;59.71;98895.41;4986533;28;20085;-50
2021/12/22 13:24:48;;;;;;;14.65;7.18;;;;;;;1.71;60.01;98899.03;4987121;28;20026;-52
2021/12/22 13:27:29;;;;;;;15.40;7.47;;;;;;;1.83;60.08;98893.59;4988759;28;20029;-53
2021/12/22 13:30:23;;;;;;;15.30;6.60;;;;;;;2.01;60.01;98898.34;4988357;28;20046;-54
2021/12/22 13:33:10;;;;;;;12.02;5.70;;;;;;;1.77;59.37;98897.16;4989461;28;20057;-54
2021/12/22 13:35:40;;;;;;;14.20;6.28;;;;;;;1.72;59.56;98892.97;4988655;28;20094;-50
2021/12/22 13:38:25;;;;;;;17.23;6.38;;;;;;;1.80;59.24;98896.25;4988585;28;20047;-54
2021/12/22 13:40:51;;;;;;;12.02;5.57;;;;;;;1.66;59.24;98894.81;4987256;28;20369;-53
2021/12/22 13:43:39;;;;;;;12.40;6.20;;;;;;;1.61;58.82;98896.63;4986993;28;20019;-53
2021/12/22 13:46:07;;;;;;;14.25;5.90;;;;;;;1.87;59.03;98900.41;4969772;28;20023;-53
2021/12/22 13:48:34;;;;;;;30.10;12.57;;;;;;;1.63;59.59;98904.38;4969685;28;20098;-53
2021/12/22 13:50:59;;;;;;;15.93;7.85;;;;;;;1.69;58.87;98895.59;4978493;28;20517;-53
2021/12/22 13:53:25;;;;;;;12.48;6.15;;;;;;;1.46;58.80;98889.22;4970769;28;20027;-54
2021/12/22 13:55:51;;;;;;;13.52;6.13;;;;;;;1.42;58.84;98870.31;4970880;28;20091;-53
2021/12/22 13:58:30;;;;;;;13.18;6.00;;;;;;;1.58;58.81;98883.78;4988125;28;20476;-53
2021/12/22 14:01:26;;;;;;;12.65;5.90;;;;;;;1.28;59.35;98897.34;4987589;28;20027;-49
2021/12/22 14:04:00;;;;;;;12.93;6.13;;;;;;;1.52;59.20;98889.09;4987767;28;20031;-51
2021/12/22 14:06:38;;;;;;;12.25;5.85;;;;;;;1.53;59.12;98885.59;4970575;28;20034;-52
2021/12/22 14:09:14;;;;;;;16.25;6.53;;;;;;;1.33;59.69;98869.66;4981998;28;20046;-54
2021/12/22 14:11:44;;;;;;;12.80;6.30;;;;;;;1.33;59.79;98885.16;4988474;28;20023;-52
2021/12/22 14:14:26;;;;;;;15.00;6.93;;;;;;;1.69;59.40;98890.44;4988048;28;20034;-50
2021/12/22 14:16:55;;;;;;;11.75;5.45;;;;;;;1.61;58.85;98899.22;4988236;28;20038;-55
2021/12/22 14:19:21;;;;;;;10.77;5.00;;;;;;;1.54;57.96;98887.31;4996704;28;20651;-51
2021/12/22 14:21:49;;;;;;;12.68;5.68;;;;;;;1.34;58.75;98886.88;5005789;28;20026;-51
2021/12/22 14:24:19;;;;;;;12.20;5.97;;;;;;;1.52;58.64;98886.50;4971671;28;20027;-51
2021/12/22 14:26:48;;;;;;;13.02;5.65;;;;;;;1.33;58.44;98883.44;4967122;28;20476;-53
2021/12/22 14:29:13;;;;;;;12.98;5.65;;;;;;;1.32;57.98;98876.56;4965466;29;20031;-53
2021/12/22 14:31:58;;;;;;;13.02;6.55;;;;;;;1.05;59.13;98880.56;4980186;28;20045;-52
2021/12/22 14:34:24;;;;;;;15.50;6.15;;;;;;;1.06;59.43;98892.56;4985394;28;20030;-51
2021/12/22 14:36:50;;;;;;;11.02;5.43;;;;;;;0.91;60.02;98879.97;4987097;28;20030;-55
2021/12/22 14:39:15;;;;;;;14.23;6.10;;;;;;;0.89;60.09;98889.47;4971507;29;20038;-53
2021/12/22 14:41:41;;;;;;;12.93;5.88;;;;;;;0.81;60.55;98888.78;4978055;28;20030;-52
2021/12/22 14:44:23;;;;;;;14.57;5.93;;;;;;;0.75;61.05;98886.28;4970230;28;20054;-52
2021/12/22 14:46:51;;;;;;;13.25;5.60;;;;;;;0.44;61.13;98874.78;4987403;28;20082;-54
2021/12/22 14:49:18;;;;;;;13.10;6.07;;;;;;;0.27;62.22;98878.50;4988976;28;20027;-54
2021/12/22 14:51:45;;;;;;;13.57;6.43;;;;;;;0.21;63.08;98867.44;4986783;28;20029;-51
2021/12/22 14:54:15;;;;;;;13.57;6.25;;;;;;;0.14;63.06;98868.41;4968645;28;20035;-53
2021/12/22 14:56:51;;;;;;;15.60;6.53;;;;;;;0.01;63.13;98877.22;4979410;28;20034;-54
2021/12/22 14:59:17;;;;;;;16.27;7.13;;;;;;;-0.08;64.02;98877.34;4971727;28;20023;-54
2021/12/22 15:01:43;;;;;;;14.52;7.20;;;;;;;-0.18;63.89;98870.63;4989047;28;20026;-55
2021/12/22 15:04:08;;;;;;;14.52;6.85;;;;;;;-0.19;64.91;98876.66;4982956;28;20027;-53
2021/12/22 15:06:34;;;;;;;14.60;6.95;;;;;;;-0.26;65.53;98861.28;4981391;28;20031;-54
2021/12/22 15:09:00;;;;;;;15.15;7.22;;;;;;;-0.46;65.35;98849.53;4988623;28;20019;-51
2021/12/22 15:11:25;;;;;;;13.35;6.35;;;;;;;-0.52;65.59;98855.63;4988415;28;20019;-54
2021/12/22 15:13:51;;;;;;;13.70;6.55;;;;;;;-0.62;66.62;98856.63;4989409;28;20061;-51
2021/12/22 15:16:18;;;;;;;13.38;7.05;;;;;;;-0.73;66.90;98855.03;4989594;28;20054;-54
2021/12/22 15:18:44;;;;;;;12.90;6.30;;;;;;;-0.80;67.36;98861.13;4981156;28;20035;-53
2021/12/22 15:21:09;;;;;;;15.57;7.20;;;;;;;-0.68;66.58;98861.88;4970303;28;20178;-53
2021/12/22 15:23:35;;;;;;;18.13;8.35;;;;;;;-0.86;67.56;98857.78;4974701;28;20082;-54
2021/12/22 15:26:00;;;;;;;16.35;7.40;;;;;;;-1.05;68.33;98854.59;4988410;28;20095;-54
2021/12/22 15:28:26;;;;;;;17.42;8.35;;;;;;;-1.00;68.59;98845.06;4980319;28;20027;-54
2021/12/22 15:30:52;;;;;;;16.77;7.85;;;;;;;-0.98;67.68;98844.19;4968987;29;20023;-54
2021/12/22 15:33:18;;;;;;;15.98;8.18;;;;;;;-0.92;67.60;98847.56;4982926;28;20078;-54
2021/12/22 15:35:44;;;;;;;18.38;9.40;;;;;;;-1.08;68.54;98844.31;4987850;28;20035;-51
2021/12/22 15:38:09;;;;;;;16.83;8.13;;;;;;;-1.07;69.13;98856.31;4988459;28;20594;-54
2021/12/22 15:40:34;;;;;;;17.50;8.60;;;;;;;-1.21;69.20;98854.75;4988206;28;20034;-54
2021/12/22 15:43:00;;;;;;;16.80;8.48;;;;;;;-1.47;69.86;98829.31;4989389;28;20046;-52
2021/12/22 15:45:25;;;;;;;17.88;8.40;;;;;;;-1.29;69.77;98846.25;4987472;28;20030;-56
2021/12/22 15:47:54;;;;;;;15.13;8.05;;;;;;;-1.33;69.06;98846.31;4989199;28;20018;-53
2021/12/22 15:50:20;;;;;;;17.80;8.13;;;;;;;-1.33;69.85;98841.19;4991887;28;20027;-53
2021/12/22 15:52:45;;;;;;;16.20;8.10;;;;;;;-1.31;70.02;98854.84;4992736;28;20023;-51
2021/12/22 15:55:11;;;;;;;17.20;8.38;;;;;;;-1.42;70.52;98849.81;4992370;28;20049;-52
2021/12/22 15:57:37;;;;;;;16.10;8.05;;;;;;;-1.47;70.75;98843.88;4991095;28;20038;-49
2021/12/22 16:00:14;;;;;;;16.30;7.72;;;;;;;-1.39;69.96;98821.50;4989122;28;20039;-53
2021/12/22 16:02:39;;;;;;;14.63;8.02;;;;;;;-1.39;70.73;98834.34;4971723;29;20092;-52
2021/12/22 16:05:05;;;;;;;18.02;7.95;;;;;;;-1.49;70.74;98833.59;4971662;28;20027;-52
2021/12/22 16:07:31;;;;;;;22.50;9.82;;;;;;;-1.39;70.14;98844.66;4988405;28;20486;-52
2021/12/22 16:09:56;;;;;;;77.75;24.77;;;;;;;-1.52;70.69;98827.63;4990884;28;20108;-53
2021/12/22 16:12:21;;;;;;;96.00;26.92;;;;;;;-1.52;70.27;98825.91;4990911;28;20027;-51
2021/12/22 16:14:47;;;;;;;115.05;33.17;;;;;;;-1.48;70.53;98834.44;4987047;28;20035;-54
2021/12/22 16:17:12;;;;;;;46.83;18.70;;;;;;;-1.50;70.29;98826.75;4981659;28;20030;-52
2021/12/22 16:19:38;;;;;;;31.27;13.13;;;;;;;-1.58;70.85;98809.69;4990643;28;20027;-51
2021/12/22 16:22:03;;;;;;;24.48;11.38;;;;;;;-1.60;70.45;98806.28;4991294;28;20027;-53
2021/12/22 16:24:29;;;;;;;20.30;9.77;;;;;;;-1.59;70.63;98806.25;4991380;28;20023;-51
2021/12/22 16:26:54;;;;;;;21.67;10.02;;;;;;;-1.59;71.18;98813.13;4988944;28;20027;-51
2021/12/22 16:29:19;;;;;;;19.08;9.82;;;;;;;-1.55;70.74;98820.81;4991199;28;20117;-50
2021/12/22 16:31:45;;;;;;;18.73;9.30;;;;;;;-1.59;70.91;98823.41;4991325;28;20023;-48
2021/12/22 16:34:10;;;;;;;17.88;8.88;;;;;;;-1.68;71.16;98830.38;4990202;28;20095;-53
2021/12/22 16:36:36;;;;;;;23.73;9.13;;;;;;;-1.75;71.34;98827.88;4990503;28;20069;-49
2021/12/22 16:39:01;;;;;;;15.80;8.25;;;;;;;-1.91;71.33;98802.28;4991174;28;20121;-52
2021/12/22 16:41:27;;;;;;;19.27;8.85;;;;;;;-1.73;71.09;98831.25;4990608;28;20034;-54
2021/12/22 16:43:53;;;;;;;21.70;9.77;;;;;;;-1.70;71.35;98837.22;4989743;28;20542;-52
2021/12/22 16:46:19;;;;;;;18.63;9.07;;;;;;;-1.81;71.69;98841.63;4990327;28;20029;-54
2021/12/22 16:48:44;;;;;;;17.67;8.35;;;;;;;-1.89;71.76;98819.41;4990533;28;20117;-53
2021/12/22 16:51:09;;;;;;;21.10;8.80;;;;;;;-2.02;72.10;98809.25;4990161;28;20045;-51
2021/12/22 16:53:35;;;;;;;25.42;10.43;;;;;;;-1.86;71.44;98827.94;4988001;28;20094;-53
2021/12/22 16:56:02;;;;;;;19.55;8.48;;;;;;;-2.08;70.91;98796.44;4989448;28;20102;-50
2021/12/22 16:58:27;;;;;;;18.58;7.85;;;;;;;-1.97;72.04;98814.34;4987373;28;20166;-53
2021/12/22 17:00:53;;;;;;;27.20;8.25;;;;;;;-2.03;72.53;98832.38;4987212;28;20082;-52
2021/12/22 17:03:18;;;;;;;16.90;7.30;;;;;;;-2.22;72.27;98817.09;4986647;28;20031;-52
2021/12/22 17:05:46;;;;;;;17.05;7.45;;;;;;;-2.22;71.48;98800.84;4987727;28;20031;-53
2021/12/22 17:08:12;;;;;;;21.77;8.45;;;;;;;-2.28;72.40;98817.16;4988154;28;20118;-52
2021/12/22 17:10:37;;;;;;;17.48;8.45;;;;;;;-2.25;73.03;98824.84;4990090;28;20027;-51
2021/12/22 17:13:07;;;;;;;15.07;8.02;;;;;;;-2.12;72.50;98833.31;4989094;28;20022;-54
2021/12/22 17:15:32;;;;;;;18.92;8.52;;;;;;;-1.99;72.37;98828.94;4988691;28;20031;-53
2021/12/22 17:17:59;;;;;;;18.67;8.40;;;;;;;-2.11;72.58;98829.03;4989340;28;20111;-51
2021/12/22 17:20:24;;;;;;;18.45;9.18;;;;;;;-2.19;73.32;98817.09;4987515;28;20090;-53
2021/12/22 17:22:49;;;;;;;21.00;11.00;;;;;;;-2.12;73.02;98817.03;4970679;28;20054;-52
2021/12/22 17:25:15;;;;;;;30.08;18.40;;;;;;;-2.15;72.31;98823.91;4983514;28;20046;-50
2021/12/22 17:27:43;;;;;;;24.20;14.13;;;;;;;-2.18;72.42;98818.78;4989698;28;20037;-53
2021/12/22 17:30:11;;;;;;;23.48;12.13;;;;;;;-2.23;73.01;98812.84;4988249;28;20057;-53
2021/12/22 17:32:36;;;;;;;22.20;11.52;;;;;;;-2.23;72.42;98810.28;4987269;28;20029;-51
2021/12/22 17:35:02;;;;;;;18.88;9.43;;;;;;;-2.30;72.96;98818.91;4986438;28;20086;-53
2021/12/22 17:37:28;;;;;;;25.52;12.02;;;;;;;-2.97;74.54;98825.25;4968258;28;20030;-51
2021/12/22 17:39:53;;;;;;;22.85;11.05;;;;;;;-3.08;75.42;98841.56;4967651;29;20061;-50
2021/12/22 17:42:18;;;;;;;45.00;22.83;;;;;;;-2.82;74.08;98819.22;4968798;29;20023;-51
2021/12/22 17:44:44;;;;;;;24.45;12.02;;;;;;;-2.53;73.40;98823.31;4968897;28;20054;-53
2021/12/22 17:47:09;;;;;;;22.40;10.98;;;;;;;-2.77;74.24;98814.91;4987178;28;20518;-51
2021/12/22 17:49:34;;;;;;;20.05;9.73;;;;;;;-2.72;74.29;98814.88;4979422;28;20027;-51
2021/12/22 17:52:00;;;;;;;24.73;12.45;;;;;;;-2.73;74.26;98819.16;4969359;29;20114;-53